Time;durP1;ratioP1;P1;durP2;ratioP2;P2;SDS_P1;SDS_P2;PMS_P1;PMS_P2;Temp;Humidity;BMP_temperature;BMP_pressure;BME280_temperature;BME280_humidity;BME280_pressure;Samples;Min_cycle;Max_cycle;Signal;HPM_P1;HPM_P2
2022/06/06 00:04:40;;;;;;;2.75;1.98;;;;;;;17.78;62.85;96349.31;10314926;28;99309;-69
2022/06/06 00:09:44;;;;;;;4.10;2.10;;;;;;;17.61;63.75;96341.63;10307705;28;98856;-69
2022/06/06 00:14:47;;;;;;;3.47;1.90;;;;;;;17.31;64.61;96338.28;10307750;28;99021;-69
2022/06/06 00:19:50;;;;;;;3.45;2.13;;;;;;;16.98;65.54;96334.28;10304816;28;97169;-68
2022/06/06 00:24:54;;;;;;;5.03;3.30;;;;;;;16.88;66.01;96322.38;10303167;28;98863;-72
2022/06/06 00:29:57;;;;;;;3.63;2.35;;;;;;;16.84;65.85;96327.22;10307794;28;96875;-71
2022/06/06 00:35:05;;;;;;;5.95;1.98;;;;;;;16.78;65.67;96325.34;10306431;28;97507;-69
2022/06/06 00:40:12;;;;;;;3.88;3.38;;;;;;;16.65;65.89;96315.38;10306642;28;98733;-68
2022/06/06 00:45:28;;;;;;;3.80;2.38;;;;;;;16.61;65.45;96314.13;10307583;28;98312;-69
2022/06/06 00:50:38;;;;;;;2.75;2.20;;;;;;;16.70;64.68;96314.84;10303916;28;96866;-70
2022/06/06 00:55:47;;;;;;;3.78;2.22;;;;;;;16.74;65.29;96305.56;10295839;28;97704;-70
2022/06/06 01:00:51;;;;;;;4.15;2.20;;;;;;;16.47;66.03;96307.88;10302930;28;96782;-70
2022/06/06 01:05:57;;;;;;;4.30;2.10;;;;;;;16.27;66.73;96304.16;10306592;28;97698;-70
2022/06/06 01:11:01;;;;;;;3.95;2.00;;;;;;;16.19;66.97;96300.59;10310872;28;97622;-69
2022/06/06 01:16:20;;;;;;;4.22;2.38;;;;;;;16.14;67.41;96284.50;10315359;28;97422;-70
2022/06/06 01:22:14;;;;;;;3.13;2.30;;;;;;;16.08;66.62;96279.94;10298031;28;96983;-69
2022/06/06 01:27:39;;;;;;;6.57;2.20;;;;;;;16.08;66.42;96276.50;10309819;28;96916;-70
2022/06/06 01:32:46;;;;;;;5.30;2.28;;;;;;;15.78;67.82;96271.22;10307430;28;97003;-70
2022/06/06 01:37:49;;;;;;;3.95;2.25;;;;;;;15.54;67.58;96275.66;10302120;28;98928;-69
2022/06/06 01:42:57;;;;;;;3.92;2.53;;;;;;;15.48;68.18;96274.56;10316719;28;97806;-69
2022/06/06 01:48:05;;;;;;;4.35;2.40;;;;;;;15.45;67.43;96277.56;10309922;28;97088;-69
2022/06/06 01:53:12;;;;;;;3.25;2.30;;;;;;;15.24;67.51;96272.94;10312640;28;97843;-71
2022/06/06 01:58:18;;;;;;;6.00;2.45;;;;;;;15.12;68.81;96264.63;10312100;28;97184;-71
2022/06/06 02:03:22;;;;;;;4.90;1.92;;;;;;;15.01;68.13;96272.94;10312065;28;97118;-70
2022/06/06 02:08:26;;;;;;;2.25;1.85;;;;;;;15.04;67.35;96272.59;10312075;28;98788;-71
2022/06/06 02:13:29;;;;;;;4.00;2.33;;;;;;;15.10;67.64;96269.25;10318886;28;97097;-69
2022/06/06 02:18:33;;;;;;;3.42;1.83;;;;;;;15.07;67.66;96271.44;10304066;28;98731;-70
2022/06/06 02:23:36;;;;;;;;;;;;;;;14.73;67.58;96276.06;10316632;28;98571;-70
2022/06/06 02:28:39;;;;;;;4.10;2.10;;;;;;;14.67;68.08;96273.31;10317300;28;98772;-69
2022/06/06 02:33:44;;;;;;;3.93;2.00;;;;;;;14.61;68.74;96263.47;10315277;28;97632;-70
2022/06/06 02:38:48;;;;;;;2.83;2.10;;;;;;;14.46;69.67;96258.13;10313573;28;99487;-69
2022/06/06 02:43:51;;;;;;;4.13;2.15;;;;;;;14.50;69.39;96269.94;10304411;28;97009;-69
2022/06/06 02:48:55;;;;;;;2.92;1.60;;;;;;;14.36;69.16;96258.34;10307349;28;99483;-70
2022/06/06 02:53:58;;;;;;;2.73;1.90;;;;;;;14.35;68.50;96256.72;10310827;28;102297;-70
2022/06/06 02:59:05;;;;;;;7.97;2.60;;;;;;;14.18;69.29;96255.91;10304654;28;98910;-69
2022/06/06 03:04:09;;;;;;;3.15;1.70;;;;;;;14.00;70.26;96243.84;10309781;28;98688;-69
2022/06/06 03:09:38;;;;;;;2.90;2.03;;;;;;;13.76;70.70;96252.59;10311615;28;96921;-70
2022/06/06 03:15:09;;;;;;;4.50;1.92;;;;;;;13.74;70.13;96245.84;10316142;28;99423;-70
2022/06/06 03:25:51;;;;;;;4.85;1.90;;;;;;;13.68;70.62;96243.91;10315423;28;97608;-69
2022/06/06 03:31:03;;;;;;;3.17;1.90;;;;;;;13.60;71.13;96247.34;10308770;28;97722;-70
2022/06/06 03:36:17;;;;;;;2.63;1.65;;;;;;;13.60;70.50;96256.06;10303583;28;98729;-70
2022/06/06 03:41:29;;;;;;;4.30;1.90;;;;;;;13.73;70.56;96259.97;10301870;28;97664;-69
2022/06/06 03:46:44;;;;;;;4.13;1.90;;;;;;;13.76;69.38;96259.66;10299331;28;98187;-73
2022/06/06 03:52:00;;;;;;;2.90;2.20;;;;;;;13.59;69.76;96264.91;10309248;28;98551;-72
2022/06/06 03:57:13;;;;;;;5.22;1.90;;;;;;;13.29;70.71;96276.06;10303106;28;97019;-72
2022/06/06 04:02:19;;;;;;;7.93;2.45;;;;;;;13.30;70.62;96282.97;10298750;28;96981;-74
2022/06/06 04:07:24;;;;;;;3.65;1.98;;;;;;;13.37;69.54;96283.94;10315309;28;96938;-72
2022/06/06 04:12:38;;;;;;;5.70;2.20;;;;;;;13.42;69.19;96285.09;10307737;28;96950;-73
2022/06/06 04:17:56;;;;;;;2.90;2.03;;;;;;;13.27;70.30;96286.72;10307566;28;98400;-72
2022/06/06 04:23:11;;;;;;;4.30;1.58;;;;;;;13.11;70.48;96284.91;10310198;28;96969;-72
2022/06/06 04:28:23;;;;;;;6.15;1.95;;;;;;;13.33;70.48;96280.03;10305567;28;96775;-76
2022/06/06 04:33:31;;;;;;;2.88;1.75;;;;;;;13.58;69.55;96284.25;10304448;28;99201;-73
2022/06/06 04:38:44;;;;;;;3.90;1.92;;;;;;;13.85;69.20;96303.28;10308859;28;98203;-73
2022/06/06 04:43:54;;;;;;;4.30;2.17;;;;;;;13.97;68.92;96288.00;10308298;28;96882;-75
2022/06/06 04:48:58;;;;;;;2.25;1.75;;;;;;;13.92;69.40;96293.75;10310686;28;98252;-73
2022/06/06 04:54:04;;;;;;;4.10;1.67;;;;;;;13.93;69.69;96291.94;10307214;28;97001;-72
2022/06/06 04:59:11;;;;;;;4.13;1.83;;;;;;;13.91;69.26;96292.09;10318433;28;97439;-72
2022/06/06 05:04:14;;;;;;;3.00;1.70;;;;;;;13.98;69.18;96293.09;10318534;28;98613;-74
2022/06/06 05:09:38;;;;;;;2.50;1.55;;;;;;;14.24;68.08;96286.75;10322062;28;101026;-72
2022/06/06 05:14:58;;;;;;;4.03;1.83;;;;;;;14.48;67.64;96290.31;10312782;28;96985;-75
2022/06/06 05:20:15;;;;;;;2.30;1.58;;;;;;;14.80;67.33;96301.66;10306415;28;98007;-72
2022/06/06 05:25:38;;;;;;;5.05;2.10;;;;;;;14.98;66.81;96301.41;10304098;28;98544;-73
2022/06/06 05:30:50;;;;;;;4.70;1.90;;;;;;;15.18;66.52;96305.22;10303668;28;97840;-73
2022/06/06 05:36:21;;;;;;;4.25;2.63;;;;;;;15.43;66.32;96303.25;10306079;28;98611;-74
2022/06/06 05:41:39;;;;;;;5.13;2.78;;;;;;;15.71;66.85;96310.63;10311868;28;97312;-76
2022/06/06 05:46:53;;;;;;;5.93;3.92;;;;;;;15.87;66.94;96313.09;10312377;28;97018;-69
2022/06/06 05:52:12;;;;;;;4.93;3.20;;;;;;;16.08;66.33;96316.84;10316542;28;97181;-69
2022/06/06 05:57:56;;;;;;;7.05;4.40;;;;;;;16.36;66.17;96305.69;10312269;28;97552;-70
2022/06/06 06:03:37;;;;;;;6.72;3.55;;;;;;;16.56;65.90;96304.13;10307222;28;97871;-69
2022/06/06 06:09:08;;;;;;;7.22;3.90;;;;;;;16.75;66.05;96301.97;10317902;28;98562;-71
2022/06/06 06:14:26;;;;;;;4.80;3.30;;;;;;;16.94;65.43;96298.72;10302002;28;98809;-69
2022/06/06 06:19:37;;;;;;;6.15;3.42;;;;;;;17.09;65.60;96300.50;10313483;28;98681;-69
2022/06/06 06:24:42;;;;;;;4.45;3.35;;;;;;;17.24;65.28;96303.09;10308829;28;98236;-69
2022/06/06 06:29:46;;;;;;;4.03;3.20;;;;;;;17.38;65.28;96312.78;10327099;28;97133;-72
2022/06/06 06:35:01;;;;;;;4.85;2.97;;;;;;;17.50;65.49;96316.53;10317984;28;96952;-70
2022/06/06 06:40:17;;;;;;;4.05;2.70;;;;;;;17.72;64.79;96314.72;10333259;28;96951;-70
2022/06/06 06:45:24;;;;;;;3.80;2.45;;;;;;;17.94;63.85;96314.69;10333061;28;96987;-69
2022/06/06 06:50:34;;;;;;;5.18;2.72;;;;;;;18.08;63.62;96319.09;10333613;28;96913;-69
2022/06/06 06:55:47;;;;;;;3.55;2.50;;;;;;;18.15;61.95;96329.72;10328328;28;98674;-70
2022/06/06 07:00:55;;;;;;;4.03;2.80;;;;;;;18.16;61.23;96341.09;10330905;28;96689;-70
2022/06/06 07:11:58;;;;;;;5.25;2.50;;;;;;;18.26;61.48;96336.28;10240945;28;101125;-69
2022/06/06 07:17:04;;;;;;;4.15;2.60;;;;;;;18.30;61.56;96321.66;10232245;28;98242;-69
2022/06/06 07:22:07;;;;;;;3.85;2.75;;;;;;;18.39;60.98;96327.59;10237537;28;97571;-69
2022/06/06 07:27:11;;;;;;;4.55;2.47;;;;;;;18.45;61.09;96329.47;10237516;28;99514;-70
2022/06/06 07:32:35;;;;;;;7.38;2.63;;;;;;;18.46;60.79;96324.00;10237230;28;97645;-72
2022/06/06 07:37:51;;;;;;;3.70;2.60;;;;;;;18.65;61.25;96321.63;10238054;28;98063;-70
2022/06/06 07:43:24;;;;;;;3.47;2.47;;;;;;;18.81;61.14;96321.31;10248138;28;97138;-69
2022/06/06 07:48:45;;;;;;;2.45;2.17;;;;;;;19.08;59.10;96316.13;10316497;28;98606;-67
2022/06/06 07:53:58;;;;;;;3.70;2.33;;;;;;;19.34;58.77;96314.56;10316278;28;97194;-67
2022/06/06 07:59:18;;;;;;;3.72;2.47;;;;;;;19.59;57.42;96315.63;10310848;28;96957;-67
2022/06/06 08:04:31;;;;;;;3.90;2.10;;;;;;;19.95;56.98;96311.78;10310509;28;96966;-67
2022/06/06 08:10:04;;;;;;;2.13;1.88;;;;;;;20.32;56.20;96304.19;10313315;28;97653;-68
2022/06/06 08:15:21;;;;;;;2.45;2.10;;;;;;;20.53;55.04;96299.66;10320161;28;99476;-70
2022/06/06 08:20:31;;;;;;;2.90;1.80;;;;;;;20.59;53.67;96298.81;10323698;28;99351;-72
2022/06/06 08:25:37;;;;;;;2.03;1.83;;;;;;;20.79;53.14;96297.94;10321922;28;98627;-70
2022/06/06 08:30:43;;;;;;;2.65;1.77;;;;;;;21.03;51.93;96289.25;10312907;28;96977;-72
2022/06/06 08:36:04;;;;;;;3.97;1.95;;;;;;;21.02;52.05;96277.00;10319270;28;97192;-68
2022/06/06 08:41:31;;;;;;;6.40;2.08;;;;;;;20.85;52.21;96267.91;10314807;28;96810;-67
2022/06/06 08:46:45;;;;;;;2.25;1.70;;;;;;;21.06;51.60;96266.75;10320182;28;103253;-76
2022/06/06 08:51:52;;;;;;;2.10;1.77;;;;;;;21.23;51.32;96253.78;10311953;28;97520;-69
2022/06/06 08:57:18;;;;;;;2.58;1.70;;;;;;;21.49;50.82;96258.91;10321008;28;97211;-69
2022/06/06 09:03:10;;;;;;;2.95;1.83;;;;;;;21.71;50.48;96258.59;10326705;28;97786;-69
2022/06/06 09:08:48;;;;;;;2.65;1.52;;;;;;;21.76;50.34;96258.75;10326097;28;98171;-70
2022/06/06 09:14:35;;;;;;;2.55;1.80;;;;;;;22.00;50.29;96250.94;10312911;28;97191;-69
2022/06/06 09:20:01;;;;;;;3.83;1.67;;;;;;;22.73;48.13;96252.00;10311788;28;97275;-71
2022/06/06 09:25:31;;;;;;;2.58;1.50;;;;;;;23.35;47.11;96246.47;10313078;28;98178;-69
2022/06/06 09:31:06;;;;;;;3.10;1.42;;;;;;;23.78;46.15;96244.59;10318787;28;98088;-69
2022/06/06 09:36:23;;;;;;;2.38;1.60;;;;;;;24.05;45.58;96242.25;10319885;28;97136;-69
2022/06/06 09:41:38;;;;;;;2.05;1.38;;;;;;;24.19;45.51;96237.50;10320581;28;96809;-72
2022/06/06 09:47:12;;;;;;;2.75;1.58;;;;;;;24.07;44.51;96243.69;10316254;28;97039;-71
2022/06/06 09:52:44;;;;;;;4.60;1.83;;;;;;;24.23;44.67;96234.16;10313702;28;96966;-69
2022/06/06 10:04:21;;;;;;;3.42;1.77;;;;;;;23.63;45.40;96221.81;10322155;28;99041;-69
2022/06/06 10:10:02;;;;;;;2.88;1.67;;;;;;;23.27;45.41;96223.66;10318997;28;98599;-69
2022/06/06 10:15:27;;;;;;;2.03;1.50;;;;;;;23.42;44.76;96227.72;10308247;28;97642;-73
2022/06/06 10:20:42;;;;;;;2.00;1.65;;;;;;;23.81;46.00;96225.44;10323132;28;98301;-69
2022/06/06 10:26:12;;;;;;;2.08;1.45;;;;;;;24.19;44.46;96203.59;10317956;28;97267;-69
2022/06/06 10:31:35;;;;;;;2.00;1.52;;;;;;;24.37;43.32;96212.53;10329638;28;97826;-70
2022/06/06 10:37:14;;;;;;;2.53;1.50;;;;;;;24.53;43.82;96213.66;10317567;28;98414;-70
2022/06/06 10:42:45;;;;;;;2.03;1.60;;;;;;;24.60;42.74;96212.47;10315111;28;97589;-69
2022/06/06 10:48:17;;;;;;;3.05;1.60;;;;;;;24.86;42.41;96207.63;10315686;28;98532;-69
2022/06/06 10:53:39;;;;;;;4.07;1.80;;;;;;;25.04;42.65;96209.28;10317209;28;99251;-69
2022/06/06 10:59:17;;;;;;;2.35;1.50;;;;;;;25.14;42.57;96209.47;10320892;28;98789;-69
2022/06/06 11:04:51;;;;;;;2.75;1.50;;;;;;;25.33;43.04;96193.22;10323641;28;98952;-70
2022/06/06 11:10:23;;;;;;;2.42;1.50;;;;;;;25.46;42.60;96192.06;10197481;28;98773;-67
2022/06/06 11:15:35;;;;;;;2.88;1.52;;;;;;;25.46;42.49;96184.88;10192220;28;96942;-67
2022/06/06 11:20:59;;;;;;;2.42;1.50;;;;;;;25.66;41.82;96180.91;10191758;28;98926;-70
2022/06/06 11:26:41;;;;;;;1.63;1.52;;;;;;;25.67;41.93;96179.84;10196089;28;98642;-66
2022/06/06 11:32:22;;;;;;;3.38;1.70;;;;;;;25.62;41.89;96176.06;10196055;28;98989;-66
2022/06/06 11:38:06;;;;;;;2.83;1.92;;;;;;;25.54;42.86;96171.09;10192227;28;98750;-66
2022/06/06 11:43:38;;;;;;;1.90;1.50;;;;;;;25.78;41.80;96165.56;10067466;28;98636;-66
2022/06/06 11:49:15;;;;;;;1.60;1.33;;;;;;;25.98;40.34;96165.88;10182321;28;98010;-67
2022/06/06 11:54:50;;;;;;;2.22;1.45;;;;;;;25.81;40.71;96173.13;10182490;28;97094;-67
2022/06/06 12:00:11;;;;;;;3.72;1.70;;;;;;;25.42;40.55;96162.34;10187805;28;98561;-67
2022/06/06 12:05:35;;;;;;;3.90;1.60;;;;;;;25.09;41.30;96168.47;10176184;28;98635;-67
2022/06/06 12:10:48;;;;;;;3.10;1.60;;;;;;;24.85;42.20;96166.75;10176261;28;100722;-67
2022/06/06 12:16:09;;;;;;;4.07;1.70;;;;;;;24.76;42.29;96162.81;10186337;28;97636;-67
2022/06/06 12:22:01;;;;;;;3.05;1.65;;;;;;;25.15;40.90;96146.94;10313515;28;96790;-67
2022/06/06 12:27:20;;;;;;;1.70;1.40;;;;;;;25.19;40.00;96153.41;10321471;28;98939;-67
2022/06/06 12:32:45;;;;;;;2.00;1.52;;;;;;;25.24;39.32;96134.00;10320702;28;98896;-68
2022/06/06 12:37:54;;;;;;;2.53;1.30;;;;;;;25.55;38.95;96137.97;10320589;28;98420;-67
2022/06/06 12:43:03;;;;;;;2.65;1.60;;;;;;;25.82;38.74;96129.22;10319161;28;98423;-67
2022/06/06 12:48:38;;;;;;;3.00;1.60;;;;;;;26.14;39.56;96125.91;10322784;28;96846;-67
2022/06/06 12:54:09;;;;;;;2.67;1.45;;;;;;;26.29;38.66;96120.75;10311594;28;97827;-67
2022/06/06 12:59:44;;;;;;;2.03;1.67;;;;;;;26.59;38.96;96114.13;10316222;28;98346;-67
2022/06/06 13:05:02;;;;;;;2.10;1.50;;;;;;;26.77;37.87;96112.13;10322338;28;99322;-67
2022/06/06 13:10:19;;;;;;;3.25;1.92;;;;;;;26.95;37.36;96109.09;10316641;28;97026;-67
2022/06/06 13:15:29;;;;;;;2.15;1.52;;;;;;;27.07;37.23;96095.53;10315743;28;100087;-70
2022/06/06 13:20:41;;;;;;;2.22;1.30;;;;;;;26.82;37.53;96104.16;10318320;28;96889;-67
2022/06/06 13:25:59;;;;;;;2.15;1.50;;;;;;;26.21;37.69;96112.31;10314686;28;99317;-67
2022/06/06 13:31:18;;;;;;;2.92;1.58;;;;;;;26.46;37.60;96101.13;10320772;28;102405;-68
2022/06/06 13:36:37;;;;;;;3.30;1.33;;;;;;;26.77;37.41;96109.47;10320064;28;99015;-67
2022/06/06 13:41:50;;;;;;;2.03;1.42;;;;;;;26.95;36.56;96108.28;10318028;28;98428;-70
2022/06/06 13:47:00;;;;;;;2.57;1.40;;;;;;;26.66;37.77;96106.69;10329891;28;97738;-69
2022/06/06 13:52:21;;;;;;;1.90;1.40;;;;;;;26.82;37.69;96104.16;10327488;28;98735;-69
2022/06/06 13:57:27;;;;;;;2.95;1.63;;;;;;;27.36;37.29;96106.75;10318282;28;97590;-73
2022/06/06 14:02:38;;;;;;;4.53;1.70;;;;;;;27.42;37.30;96100.34;10324437;28;98591;-68
2022/06/06 14:07:58;;;;;;;1.90;1.40;;;;;;;27.42;37.82;96100.34;10319914;28;97633;-69
2022/06/06 14:13:08;;;;;;;4.20;1.63;;;;;;;27.69;38.05;96099.47;10325377;28;98583;-68
2022/06/06 14:18:15;;;;;;;2.42;1.52;;;;;;;27.35;38.63;96093.59;10337308;28;99705;-68
2022/06/06 14:23:25;;;;;;;4.05;1.77;;;;;;;27.30;38.75;96089.00;10332926;28;98817;-68
2022/06/06 14:28:31;;;;;;;5.85;1.77;;;;;;;27.94;38.91;96084.53;10327645;28;100414;-69
2022/06/06 14:33:36;;;;;;;1.98;1.20;;;;;;;29.61;36.74;96076.19;10325399;28;98830;-68
2022/06/06 14:38:41;;;;;;;2.88;1.13;;;;;;;30.20;35.48;96076.53;10322332;28;98148;-70
2022/06/06 14:43:52;;;;;;;1.65;1.20;;;;;;;30.65;34.23;96082.72;10328065;28;98274;-69
2022/06/06 14:48:58;;;;;;;3.55;1.35;;;;;;;31.03;34.32;96078.44;10318113;28;96798;-69
2022/06/06 14:54:07;;;;;;;2.60;1.50;;;;;;;31.28;33.67;96084.72;10338523;28;97003;-69
2022/06/06 14:59:14;;;;;;;2.13;1.20;;;;;;;30.80;33.59;96090.75;10317942;28;97856;-70
2022/06/06 15:04:21;;;;;;;2.05;1.30;;;;;;;29.37;34.21;96094.78;10320147;28;97834;-70
2022/06/06 15:09:39;;;;;;;2.45;1.33;;;;;;;28.43;35.12;96090.38;10332459;28;96987;-70
2022/06/06 15:14:42;;;;;;;3.90;1.48;;;;;;;27.83;35.96;96086.38;10323627;28;97023;-70
2022/06/06 15:19:49;;;;;;;2.05;1.23;;;;;;;26.95;36.82;96098.38;10327108;28;96941;-69
2022/06/06 15:24:54;;;;;;;1.95;1.50;;;;;;;26.47;37.47;96102.75;10328944;28;98999;-69
2022/06/06 15:30:03;;;;;;;3.53;1.40;;;;;;;26.34;37.72;96099.38;10326526;28;99025;-69
2022/06/06 15:35:18;;;;;;;1.88;1.33;;;;;;;26.02;38.09;96096.59;10336525;28;96996;-69
2022/06/06 15:40:31;;;;;;;4.93;1.48;;;;;;;25.61;38.86;96080.78;10327354;28;102959;-69
2022/06/06 15:45:49;;;;;;;3.30;1.07;;;;;;;25.24;39.60;96085.88;10320763;28;97149;-69
2022/06/06 15:51:03;;;;;;;1.92;1.30;;;;;;;24.92;40.67;96088.28;10329941;28;97160;-69
2022/06/06 15:56:14;;;;;;;2.37;1.00;;;;;;;24.52;40.22;96073.97;10327622;28;98807;-69
2022/06/06 16:01:29;;;;;;;2.17;1.50;;;;;;;24.42;40.67;96087.16;10326621;28;99874;-69
2022/06/06 16:06:36;;;;;;;1.25;0.93;;;;;;;24.21;41.51;96085.94;10327449;28;97297;-70
2022/06/06 16:11:51;;;;;;;1.38;1.08;;;;;;;24.10;41.54;96088.41;10321525;28;97402;-69
2022/06/06 16:16:57;;;;;;;1.77;1.30;;;;;;;24.16;41.94;96092.00;10330291;28;97905;-69
2022/06/06 16:22:07;;;;;;;2.75;1.42;;;;;;;24.12;42.58;96089.00;10314817;28;96971;-69
2022/06/06 16:27:16;;;;;;;3.47;1.10;;;;;;;23.85;42.31;96090.56;10327153;28;97014;-69
2022/06/06 16:32:37;;;;;;;1.70;1.00;;;;;;;23.79;43.65;96081.63;10329050;28;96876;-69
2022/06/06 16:38:03;;;;;;;2.60;1.10;;;;;;;23.81;43.36;96082.22;10321421;28;98113;-69
2022/06/06 16:49:10;;;;;;;1.77;1.00;;;;;;;24.06;42.63;96071.25;10328306;28;97025;-69
2022/06/06 16:54:28;;;;;;;2.17;1.38;;;;;;;23.81;42.79;96068.06;10327403;28;97246;-69
2022/06/06 16:59:42;;;;;;;5.68;4.15;;;;;;;23.66;42.65;96072.03;10322355;28;97073;-70
2022/06/06 17:04:49;;;;;;;1.70;1.00;;;;;;;23.51;42.33;96069.03;10305071;28;97301;-71
2022/06/06 17:10:05;;;;;;;2.55;1.85;;;;;;;23.47;42.20;96063.34;10319616;28;96884;-67
2022/06/06 17:15:23;;;;;;;4.18;3.72;;;;;;;23.43;41.97;96080.03;10305305;28;97404;-68
2022/06/06 17:20:30;;;;;;;1.33;1.05;;;;;;;23.16;41.94;96104.47;10301598;28;97056;-71
2022/06/06 17:25:35;;;;;;;3.40;1.30;;;;;;;22.86;43.67;96120.53;10324461;28;98020;-69
2022/06/06 17:30:50;;;;;;;1.83;1.00;;;;;;;22.70;43.78;96121.97;10321026;28;96962;-70
2022/06/06 17:36:11;;;;;;;2.65;0.90;;;;;;;22.71;44.45;96107.63;10324747;28;97114;-68
2022/06/06 17:41:18;;;;;;;3.17;1.10;;;;;;;22.53;45.10;96096.00;10322120;28;98056;-69
2022/06/06 17:46:30;;;;;;;1.20;1.00;;;;;;;22.33;44.99;96114.06;10322238;28;97905;-69
2022/06/06 17:51:45;;;;;;;1.27;1.00;;;;;;;22.33;47.14;96106.09;10322376;28;96787;-69
2022/06/06 17:56:58;;;;;;;2.65;1.70;;;;;;;22.30;47.43;96111.84;10320956;28;96880;-68
2022/06/06 18:02:33;;;;;;;1.70;1.10;;;;;;;22.11;47.93;96111.91;10323460;28;98004;-69
2022/06/06 18:08:02;;;;;;;2.30;1.10;;;;;;;22.14;47.98;96110.63;10309260;28;97284;-68
2022/06/06 18:13:25;;;;;;;1.50;1.08;;;;;;;22.14;49.27;96108.78;10321274;28;99112;-68
2022/06/06 18:18:33;;;;;;;0.95;0.85;;;;;;;22.05;47.77;96113.59;10320173;28;99173;-69
2022/06/06 18:23:46;;;;;;;1.63;1.15;;;;;;;21.99;49.01;96111.81;10327061;28;97739;-68
2022/06/06 18:28:52;;;;;;;1.75;1.20;;;;;;;21.78;49.25;96118.41;10323922;28;96773;-68
2022/06/06 18:34:07;;;;;;;1.70;1.30;;;;;;;21.59;50.02;96111.41;10328591;28;98120;-69
2022/06/06 18:39:18;;;;;;;1.63;1.17;;;;;;;21.38;50.08;96107.31;10323724;28;96841;-68
2022/06/06 18:44:24;;;;;;;1.55;1.30;;;;;;;21.24;50.01;96102.16;10319101;28;103772;-68
2022/06/06 18:49:31;;;;;;;3.70;1.75;;;;;;;21.06;51.16;96102.91;10318096;28;96999;-69
2022/06/06 18:54:44;;;;;;;1.50;1.40;;;;;;;20.94;50.83;96094.00;10331998;28;96783;-68
2022/06/06 19:00:18;;;;;;;2.55;1.35;;;;;;;20.81;51.15;96096.75;10333533;28;96992;-69
2022/06/06 19:05:25;;;;;;;3.13;1.20;;;;;;;20.65;51.79;96084.81;10325261;28;97565;-69
2022/06/06 19:10:31;;;;;;;2.00;1.15;;;;;;;20.47;52.74;96083.69;10325181;28;99646;-69
2022/06/06 19:15:36;;;;;;;2.40;1.50;;;;;;;20.38;51.63;96080.50;10330539;28;97886;-69
2022/06/06 19:20:46;;;;;;;1.48;1.30;;;;;;;20.44;52.04;96078.00;10328493;28;98539;-69
2022/06/06 19:25:54;;;;;;;4.28;2.20;;;;;;;20.50;51.96;96079.81;10332964;28;97214;-69
2022/06/06 19:31:15;;;;;;;3.00;1.70;;;;;;;20.46;52.56;96083.91;10327227;28;96783;-69
2022/06/06 19:36:22;;;;;;;1.80;1.48;;;;;;;20.35;52.81;96070.28;10333113;28;97043;-70
2022/06/06 19:41:28;;;;;;;2.50;1.60;;;;;;;20.12;53.66;96064.72;10330890;28;98509;-71
2022/06/06 19:46:34;;;;;;;3.17;1.55;;;;;;;20.03;54.54;96076.63;10328078;28;97267;-69
2022/06/06 19:51:42;;;;;;;2.42;1.92;;;;;;;19.96;54.01;96077.44;10331598;28;98927;-69
2022/06/06 19:56:49;;;;;;;3.92;2.50;;;;;;;19.93;54.61;96083.16;10324426;28;98716;-69
2022/06/06 20:01:56;;;;;;;4.30;3.88;;;;;;;19.91;54.80;96090.53;10317608;28;97124;-68
2022/06/06 20:07:03;;;;;;;2.20;1.90;;;;;;;19.92;54.26;96099.28;10330752;28;97357;-69
2022/06/06 20:12:16;;;;;;;1.88;1.60;;;;;;;19.62;55.91;96103.22;10332034;28;97026;-69
2022/06/06 20:17:20;;;;;;;3.78;1.63;;;;;;;19.37;56.95;96104.91;10331621;28;97738;-69
2022/06/06 20:22:29;;;;;;;2.88;1.73;;;;;;;19.23;57.29;96104.91;10331309;28;96941;-69
2022/06/06 20:27:36;;;;;;;2.25;1.38;;;;;;;19.15;57.47;96107.78;10325101;28;96929;-68
2022/06/06 20:32:43;;;;;;;2.13;1.60;;;;;;;19.15;57.42;96106.97;10333194;28;96900;-68
2022/06/06 20:38:03;;;;;;;4.40;1.67;;;;;;;19.12;57.54;96105.53;10328633;28;97737;-69
2022/06/06 20:43:19;;;;;;;2.40;1.60;;;;;;;19.14;57.85;96111.47;10324981;28;98479;-68
2022/06/06 20:48:26;;;;;;;3.25;1.63;;;;;;;19.16;58.48;96108.59;10324507;28;97212;-72
2022/06/06 20:53:33;;;;;;;2.67;1.67;;;;;;;19.12;58.00;96132.00;10311688;28;98947;-70
2022/06/06 20:58:38;;;;;;;4.43;2.78;;;;;;;18.88;60.47;96149.34;10334418;28;97952;-68
2022/06/06 21:03:41;;;;;;;3.50;1.90;;;;;;;18.74;60.12;96174.94;10337571;28;97619;-69
2022/06/06 21:08:57;;;;;;;4.57;1.93;;;;;;;18.59;61.29;96177.72;10328812;28;97491;-69
2022/06/06 21:14:02;;;;;;;2.92;1.60;;;;;;;18.56;61.52;96166.72;10317461;28;96911;-69
2022/06/06 21:19:05;;;;;;;4.57;1.80;;;;;;;18.50;63.12;96163.88;10315862;28;96975;-68
2022/06/06 21:24:13;;;;;;;4.60;2.08;;;;;;;18.47;63.27;96158.97;10327962;28;96732;-68
2022/06/06 21:29:17;;;;;;;5.10;2.35;;;;;;;18.44;64.54;96151.44;10324303;28;96745;-69
2022/06/06 21:34:20;;;;;;;6.40;3.47;;;;;;;18.43;64.91;96152.47;10320389;28;96930;-69
2022/06/06 21:39:24;;;;;;;5.82;3.67;;;;;;;18.35;65.76;96139.41;10309062;28;97989;-68
2022/06/06 21:44:28;;;;;;;6.13;2.85;;;;;;;18.10;66.45;96152.34;10298226;28;97180;-69
2022/06/06 21:49:31;;;;;;;2.95;2.20;;;;;;;17.77;67.26;96147.69;10314554;28;98417;-68
2022/06/06 21:54:36;;;;;;;3.20;2.30;;;;;;;17.59;68.55;96142.09;10325378;28;96935;-68
2022/06/06 21:59:39;;;;;;;2.42;2.17;;;;;;;17.42;68.05;96139.72;10314378;28;96845;-69
2022/06/06 22:04:43;;;;;;;3.13;2.20;;;;;;;17.40;68.57;96147.03;10307048;28;96893;-68
2022/06/06 22:09:47;;;;;;;4.47;2.47;;;;;;;17.38;68.57;96157.78;10310210;28;97341;-68
2022/06/06 22:14:51;;;;;;;2.92;2.00;;;;;;;17.35;67.46;96150.28;10316657;28;97274;-68
2022/06/06 22:19:54;;;;;;;4.45;2.10;;;;;;;17.36;67.92;96151.88;10313850;28;96959;-68
2022/06/06 22:25:01;;;;;;;3.20;2.00;;;;;;;17.41;68.53;96159.25;10328396;28;98672;-69
2022/06/06 22:30:05;;;;;;;5.05;3.00;;;;;;;17.36;68.53;96157.16;10322680;28;98516;-74
2022/06/06 22:35:08;;;;;;;7.20;5.30;;;;;;;17.25;69.58;96143.66;10313376;28;98498;-68
2022/06/06 22:40:13;;;;;;;4.20;3.03;;;;;;;17.24;69.60;96134.13;10316388;28;96853;-72
2022/06/06 22:45:16;;;;;;;4.97;4.20;;;;;;;17.32;70.14;96137.44;10320003;28;98683;-69
2022/06/06 22:50:19;;;;;;;7.70;4.55;;;;;;;17.35;70.41;96139.72;10326105;28;97725;-68
2022/06/06 22:55:24;;;;;;;5.85;4.05;;;;;;;17.30;70.22;96136.00;10318619;28;98639;-68
2022/06/06 23:00:27;;;;;;;;;;;;;;;17.22;69.71;96139.59;10308600;28;96960;-68
2022/06/06 23:05:29;;;;;;;4.35;3.38;;;;;;;17.12;70.71;96144.41;10320610;28;99437;-69
2022/06/06 23:10:34;;;;;;;6.35;4.35;;;;;;;17.03;71.67;96150.81;10316894;28;98030;-68
2022/06/06 23:15:37;;;;;;;5.22;3.63;;;;;;;16.89;72.17;96150.69;10310617;28;97079;-68
2022/06/06 23:20:39;;;;;;;6.38;4.07;;;;;;;16.81;72.96;96158.75;10317231;28;98508;-68
2022/06/06 23:25:44;;;;;;;4.13;3.58;;;;;;;16.72;73.73;96165.94;10320644;28;97991;-69
2022/06/06 23:30:46;;;;;;;4.65;3.33;;;;;;;16.66;74.40;96173.78;10318173;28;97772;-68
2022/06/06 23:35:54;;;;;;;3.00;2.55;;;;;;;16.62;73.46;96166.25;10319613;28;96918;-68
2022/06/06 23:40:58;;;;;;;3.85;2.35;;;;;;;16.81;71.45;96164.84;10322643;28;98924;-69
2022/06/06 23:51:26;;;;;;;5.50;3.00;;;;;;;16.74;73.42;96152.56;10316336;28;98078;-70
2022/06/06 23:56:35;;;;;;;3.40;1.42;;;;;;;16.73;71.89;96166.78;10337381;28;97740;-68
